ウシュアイア の空港の天気 - METARとTAF

ウシュアイア空港 ( SAWH / USH ) - アルゼンチン ティエラ・デル・フエゴ州、ウシュアイア
飛行場実況気象(Metar)
観測時間07/07 08:00 ART (07/07 11:00 UTC)
風向・風速北北西 6m/s 瞬間風速11m/s
視程10km以上
天気現象
少しの雲 雲底高度 1070m
全天の4割程度の雲 雲底高度 1370m
気温3℃
湿度60%
気圧1013hPa
METARSAWH 071100Z 34012G22KT 9999 FEW035 SCT045 03/M04 Q1013
過去の天気等 Google飛行場航空写真 Wunderground天気予報

過去48時間のMETAR

飛行場予報(TAF)
発表時間: 7/07 02:00 ART (7/07 05:00 UTC)
予報対象時間: 7日3時 ART ~ 8日3時 ART
風向・風速北 5m/s
視程10km以上
全天の4割程度の雲 雲底高度 910m
全天の8割程度の雲 雲底高度 1830m
7日4時 ART ~ 7日6時 ART に徐々に
風向・風速北北東 5m/s 瞬間風速 10m/s
7日3時 ART ~ 7日9時 ART に 確率 30% で一時的に
視程7000m
天気現象弱い雪
全天の4割程度の雲 雲底高度 610m
全天の4割程度の雲 雲底高度 1220m
7日15時 ART ~ 7日19時 ART に徐々に
風向・風速北 8m/s 瞬間風速 15m/s
視程10km以上
天気現象弱いしゅう雨
全天の4割程度の雲 雲底高度 460m
全天の8割程度の雲 雲底高度 910m
TAF SAWH 070500Z 0706/0806 36010KT 9999 SCT030 BKN060 TX03/0718Z TNM03/0710Z
BECMG 0707/0709 02010G20KT
PROB30 TEMPO 0706/0712 7000 -SN SCT020 SCT040
BECMG 0718/0722 36015G30KT 9999 -SHRA SCT015 BKN030